sensor_id;sensor_type;location;lat;lon;timestamp;temperature;humidity
50586;DHT22;36542;51.700;8.846;2023-05-23T00:00:07;14.70;99.90
50586;DHT22;36542;51.700;8.846;2023-05-23T00:02:33;14.70;99.90
50586;DHT22;36542;51.700;8.846;2023-05-23T00:04:59;14.60;99.90
50586;DHT22;36542;51.700;8.846;2023-05-23T00:07:27;14.50;99.90
50586;DHT22;36542;51.700;8.846;2023-05-23T00:09:53;14.50;99.90
50586;DHT22;36542;51.700;8.846;2023-05-23T00:12:18;14.40;99.90
50586;DHT22;36542;51.700;8.846;2023-05-23T00:14:44;14.30;99.90
50586;DHT22;36542;51.700;8.846;2023-05-23T00:17:10;14.10;99.90
50586;DHT22;36542;51.700;8.846;2023-05-23T00:19:36;14.10;99.90
50586;DHT22;36542;51.700;8.846;2023-05-23T00:22:01;14.00;99.90
50586;DHT22;36542;51.700;8.846;2023-05-23T00:24:27;13.90;99.90
50586;DHT22;36542;51.700;8.846;2023-05-23T00:26:53;14.00;99.90
50586;DHT22;36542;51.700;8.846;2023-05-23T00:29:18;14.00;99.90
50586;DHT22;36542;51.700;8.846;2023-05-23T00:31:45;14.00;99.90
50586;DHT22;36542;51.700;8.846;2023-05-23T00:34:17;14.10;99.90
50586;DHT22;36542;51.700;8.846;2023-05-23T00:36:43;14.10;99.90
50586;DHT22;36542;51.700;8.846;2023-05-23T00:39:11;14.10;99.90
50586;DHT22;36542;51.700;8.846;2023-05-23T00:41:44;14.10;99.90
50586;DHT22;36542;51.700;8.846;2023-05-23T00:44:11;14.00;99.90
50586;DHT22;36542;51.700;8.846;2023-05-23T00:46:36;14.00;99.90
50586;DHT22;36542;51.700;8.846;2023-05-23T00:49:02;14.00;99.90
50586;DHT22;36542;51.700;8.846;2023-05-23T00:51:27;14.00;99.90
50586;DHT22;36542;51.700;8.846;2023-05-23T00:53:53;14.00;99.90
50586;DHT22;36542;51.700;8.846;2023-05-23T00:56:19;14.00;99.90
50586;DHT22;36542;51.700;8.846;2023-05-23T00:58:45;14.00;99.90
50586;DHT22;36542;51.700;8.846;2023-05-23T01:01:11;14.00;99.90
50586;DHT22;36542;51.700;8.846;2023-05-23T01:03:37;14.00;99.90
50586;DHT22;36542;51.700;8.846;2023-05-23T01:06:03;14.00;99.90
50586;DHT22;36542;51.700;8.846;2023-05-23T01:08:28;14.00;99.90
50586;DHT22;36542;51.700;8.846;2023-05-23T01:10:56;14.00;99.90
50586;DHT22;36542;51.700;8.846;2023-05-23T01:13:39;14.00;99.90
50586;DHT22;36542;51.700;8.846;2023-05-23T01:16:11;13.90;99.90
50586;DHT22;36542;51.700;8.846;2023-05-23T01:18:42;13.90;99.90
50586;DHT22;36542;51.700;8.846;2023-05-23T01:21:16;13.90;99.90
50586;DHT22;36542;51.700;8.846;2023-05-23T01:26:59;13.90;99.90
50586;DHT22;36542;51.700;8.846;2023-05-23T01:29:28;13.90;99.90
50586;DHT22;36542;51.700;8.846;2023-05-23T01:31:57;13.90;99.90
50586;DHT22;36542;51.700;8.846;2023-05-23T01:34:24;13.90;99.90
50586;DHT22;36542;51.700;8.846;2023-05-23T01:36:53;13.90;99.90
50586;DHT22;36542;51.700;8.846;2023-05-23T01:39:20;13.90;99.90
50586;DHT22;36542;51.700;8.846;2023-05-23T01:41:45;13.90;99.90
50586;DHT22;36542;51.700;8.846;2023-05-23T01:44:11;13.90;99.90
50586;DHT22;36542;51.700;8.846;2023-05-23T01:46:37;13.80;99.90
50586;DHT22;36542;51.700;8.846;2023-05-23T01:49:05;13.80;99.90
50586;DHT22;36542;51.700;8.846;2023-05-23T01:51:31;13.80;99.90
50586;DHT22;36542;51.700;8.846;2023-05-23T01:53:58;13.70;99.90
50586;DHT22;36542;51.700;8.846;2023-05-23T01:56:24;13.70;99.90
50586;DHT22;36542;51.700;8.846;2023-05-23T01:58:51;13.70;99.90
50586;DHT22;36542;51.700;8.846;2023-05-23T02:01:17;13.70;99.90
50586;DHT22;36542;51.700;8.846;2023-05-23T02:03:42;13.60;99.90
50586;DHT22;36542;51.700;8.846;2023-05-23T02:06:08;13.60;99.90
50586;DHT22;36542;51.700;8.846;2023-05-23T02:08:34;13.60;99.90
50586;DHT22;36542;51.700;8.846;2023-05-23T02:10:59;13.50;99.90
50586;DHT22;36542;51.700;8.846;2023-05-23T02:13:25;13.40;99.90
50586;DHT22;36542;51.700;8.846;2023-05-23T02:15:50;13.40;99.90
50586;DHT22;36542;51.700;8.846;2023-05-23T02:18:16;13.30;99.90
50586;DHT22;36542;51.700;8.846;2023-05-23T02:20:42;13.30;99.90
50586;DHT22;36542;51.700;8.846;2023-05-23T02:23:08;13.30;99.90
50586;DHT22;36542;51.700;8.846;2023-05-23T02:25:34;13.20;99.90
50586;DHT22;36542;51.700;8.846;2023-05-23T02:28:00;13.20;99.90
50586;DHT22;36542;51.700;8.846;2023-05-23T02:30:25;13.20;99.90
50586;DHT22;36542;51.700;8.846;2023-05-23T02:32:51;13.10;99.90
50586;DHT22;36542;51.700;8.846;2023-05-23T02:35:17;13.10;99.90
50586;DHT22;36542;51.700;8.846;2023-05-23T02:37:42;13.10;99.90
50586;DHT22;36542;51.700;8.846;2023-05-23T02:40:08;13.00;99.90
50586;DHT22;36542;51.700;8.846;2023-05-23T02:42:34;13.00;99.90
50586;DHT22;36542;51.700;8.846;2023-05-23T02:45:00;12.90;99.90
50586;DHT22;36542;51.700;8.846;2023-05-23T02:47:25;12.90;99.90
50586;DHT22;36542;51.700;8.846;2023-05-23T02:49:51;12.90;99.90
50586;DHT22;36542;51.700;8.846;2023-05-23T02:52:16;12.80;99.90
50586;DHT22;36542;51.700;8.846;2023-05-23T02:54:42;12.80;99.90
50586;DHT22;36542;51.700;8.846;2023-05-23T02:57:08;12.70;99.90
50586;DHT22;36542;51.700;8.846;2023-05-23T02:59:33;12.70;99.90
50586;DHT22;36542;51.700;8.846;2023-05-23T03:01:59;12.60;99.90
50586;DHT22;36542;51.700;8.846;2023-05-23T03:04:24;12.60;99.90
50586;DHT22;36542;51.700;8.846;2023-05-23T03:06:50;12.60;99.90
50586;DHT22;36542;51.700;8.846;2023-05-23T03:09:18;12.60;99.90
50586;DHT22;36542;51.700;8.846;2023-05-23T03:11:44;12.60;99.90
50586;DHT22;36542;51.700;8.846;2023-05-23T03:14:09;12.60;99.90
50586;DHT22;36542;51.700;8.846;2023-05-23T03:16:35;12.50;99.90
50586;DHT22;36542;51.700;8.846;2023-05-23T03:19:00;12.50;99.90
50586;DHT22;36542;51.700;8.846;2023-05-23T03:21:26;12.40;99.90
50586;DHT22;36542;51.700;8.846;2023-05-23T03:23:51;12.40;99.90
50586;DHT22;36542;51.700;8.846;2023-05-23T03:26:18;12.40;99.90
50586;DHT22;36542;51.700;8.846;2023-05-23T03:28:43;12.40;99.90
50586;DHT22;36542;51.700;8.846;2023-05-23T03:31:09;12.40;99.90
50586;DHT22;36542;51.700;8.846;2023-05-23T03:33:34;12.30;99.90
50586;DHT22;36542;51.700;8.846;2023-05-23T03:36:00;12.30;99.90
50586;DHT22;36542;51.700;8.846;2023-05-23T03:38:26;12.30;99.90
50586;DHT22;36542;51.700;8.846;2023-05-23T03:40:51;12.30;99.90
50586;DHT22;36542;51.700;8.846;2023-05-23T03:43:18;12.30;99.90
50586;DHT22;36542;51.700;8.846;2023-05-23T03:45:43;12.30;99.90
50586;DHT22;36542;51.700;8.846;2023-05-23T03:48:09;12.30;99.90
50586;DHT22;36542;51.700;8.846;2023-05-23T03:50:35;12.20;99.90
50586;DHT22;36542;51.700;8.846;2023-05-23T03:53:00;12.20;99.90
50586;DHT22;36542;51.700;8.846;2023-05-23T03:55:26;12.30;99.90
50586;DHT22;36542;51.700;8.846;2023-05-23T03:57:51;12.30;99.90
50586;DHT22;36542;51.700;8.846;2023-05-23T04:00:17;12.30;99.90
50586;DHT22;36542;51.700;8.846;2023-05-23T04:02:44;12.30;99.90
50586;DHT22;36542;51.700;8.846;2023-05-23T04:05:11;12.30;99.90
50586;DHT22;36542;51.700;8.846;2023-05-23T04:07:37;12.30;99.90
50586;DHT22;36542;51.700;8.846;2023-05-23T04:10:03;12.30;99.90
50586;DHT22;36542;51.700;8.846;2023-05-23T04:12:29;12.30;99.90
50586;DHT22;36542;51.700;8.846;2023-05-23T04:14:55;12.30;99.90
50586;DHT22;36542;51.700;8.846;2023-05-23T04:17:20;12.30;99.90
50586;DHT22;36542;51.700;8.846;2023-05-23T04:19:46;12.30;99.90
50586;DHT22;36542;51.700;8.846;2023-05-23T04:22:12;12.30;99.90
50586;DHT22;36542;51.700;8.846;2023-05-23T04:24:37;12.30;99.90
50586;DHT22;36542;51.700;8.846;2023-05-23T04:27:03;12.30;99.90
50586;DHT22;36542;51.700;8.846;2023-05-23T04:29:29;12.30;99.90
50586;DHT22;36542;51.700;8.846;2023-05-23T04:31:56;12.30;99.90
50586;DHT22;36542;51.700;8.846;2023-05-23T04:34:22;12.30;99.90
50586;DHT22;36542;51.700;8.846;2023-05-23T04:36:47;12.40;99.90
50586;DHT22;36542;51.700;8.846;2023-05-23T04:39:13;12.40;99.90
50586;DHT22;36542;51.700;8.846;2023-05-23T04:41:41;12.40;99.90
50586;DHT22;36542;51.700;8.846;2023-05-23T04:44:06;12.40;99.90
50586;DHT22;36542;51.700;8.846;2023-05-23T04:46:34;12.40;99.90
50586;DHT22;36542;51.700;8.846;2023-05-23T04:49:01;12.40;99.90
50586;DHT22;36542;51.700;8.846;2023-05-23T04:51:26;12.40;99.90
50586;DHT22;36542;51.700;8.846;2023-05-23T04:53:52;12.40;99.90
50586;DHT22;36542;51.700;8.846;2023-05-23T04:56:17;12.40;99.90
50586;DHT22;36542;51.700;8.846;2023-05-23T04:58:45;12.40;99.90
50586;DHT22;36542;51.700;8.846;2023-05-23T05:01:11;12.40;99.90
50586;DHT22;36542;51.700;8.846;2023-05-23T05:03:36;12.40;99.90
50586;DHT22;36542;51.700;8.846;2023-05-23T05:06:02;12.40;99.90
50586;DHT22;36542;51.700;8.846;2023-05-23T05:08:28;12.40;99.90
50586;DHT22;36542;51.700;8.846;2023-05-23T05:10:54;12.40;99.90
50586;DHT22;36542;51.700;8.846;2023-05-23T05:13:20;12.40;99.90
50586;DHT22;36542;51.700;8.846;2023-05-23T05:15:45;12.40;99.90
50586;DHT22;36542;51.700;8.846;2023-05-23T05:18:12;12.40;99.90
50586;DHT22;36542;51.700;8.846;2023-05-23T05:20:38;12.40;99.90
50586;DHT22;36542;51.700;8.846;2023-05-23T05:23:03;12.40;99.90
50586;DHT22;36542;51.700;8.846;2023-05-23T05:25:29;12.40;99.90
50586;DHT22;36542;51.700;8.846;2023-05-23T05:28:05;12.50;99.90
50586;DHT22;36542;51.700;8.846;2023-05-23T05:30:31;12.50;99.90
50586;DHT22;36542;51.700;8.846;2023-05-23T05:33:01;12.50;99.90
50586;DHT22;36542;51.700;8.846;2023-05-23T05:35:30;12.50;99.90
50586;DHT22;36542;51.700;8.846;2023-05-23T05:37:56;12.50;99.90
50586;DHT22;36542;51.700;8.846;2023-05-23T05:40:21;12.50;99.90
50586;DHT22;36542;51.700;8.846;2023-05-23T05:42:47;12.50;99.90
50586;DHT22;36542;51.700;8.846;2023-05-23T05:45:12;12.50;99.90
50586;DHT22;36542;51.700;8.846;2023-05-23T05:47:38;12.50;99.90
50586;DHT22;36542;51.700;8.846;2023-05-23T05:50:07;12.50;99.90
50586;DHT22;36542;51.700;8.846;2023-05-23T05:52:33;12.50;99.90
50586;DHT22;36542;51.700;8.846;2023-05-23T05:55:03;12.50;99.90
50586;DHT22;36542;51.700;8.846;2023-05-23T05:57:29;12.50;99.90
50586;DHT22;36542;51.700;8.846;2023-05-23T05:59:55;12.50;99.90
50586;DHT22;36542;51.700;8.846;2023-05-23T06:02:20;12.50;99.90
50586;DHT22;36542;51.700;8.846;2023-05-23T06:04:46;12.50;99.90
50586;DHT22;36542;51.700;8.846;2023-05-23T06:07:11;12.60;99.90
50586;DHT22;36542;51.700;8.846;2023-05-23T06:09:37;12.60;99.90
50586;DHT22;36542;51.700;8.846;2023-05-23T06:12:02;12.60;99.90
50586;DHT22;36542;51.700;8.846;2023-05-23T06:14:28;12.60;99.90
50586;DHT22;36542;51.700;8.846;2023-05-23T06:16:53;12.60;99.90
50586;DHT22;36542;51.700;8.846;2023-05-23T06:19:19;12.50;99.90
50586;DHT22;36542;51.700;8.846;2023-05-23T06:21:44;12.60;99.90
50586;DHT22;36542;51.700;8.846;2023-05-23T06:24:10;12.50;99.90
50586;DHT22;36542;51.700;8.846;2023-05-23T06:26:35;12.50;99.90
50586;DHT22;36542;51.700;8.846;2023-05-23T06:29:02;12.50;99.90
50586;DHT22;36542;51.700;8.846;2023-05-23T06:31:27;12.50;99.90
50586;DHT22;36542;51.700;8.846;2023-05-23T06:33:53;12.60;99.90
50586;DHT22;36542;51.700;8.846;2023-05-23T06:36:18;12.60;99.90
50586;DHT22;36542;51.700;8.846;2023-05-23T06:38:44;12.60;99.90
50586;DHT22;36542;51.700;8.846;2023-05-23T06:41:09;12.50;99.90
50586;DHT22;36542;51.700;8.846;2023-05-23T06:43:35;12.60;99.90
50586;DHT22;36542;51.700;8.846;2023-05-23T06:46:01;12.60;99.90
50586;DHT22;36542;51.700;8.846;2023-05-23T06:48:26;12.60;99.90
50586;DHT22;36542;51.700;8.846;2023-05-23T06:50:52;12.60;99.90
50586;DHT22;36542;51.700;8.846;2023-05-23T06:53:17;12.60;99.90
50586;DHT22;36542;51.700;8.846;2023-05-23T06:55:43;12.50;99.90
50586;DHT22;36542;51.700;8.846;2023-05-23T06:58:08;12.50;99.90
50586;DHT22;36542;51.700;8.846;2023-05-23T07:00:34;12.50;99.90
50586;DHT22;36542;51.700;8.846;2023-05-23T07:02:59;12.50;99.90
50586;DHT22;36542;51.700;8.846;2023-05-23T07:05:27;12.50;99.90
50586;DHT22;36542;51.700;8.846;2023-05-23T07:07:53;12.40;99.90
50586;DHT22;36542;51.700;8.846;2023-05-23T07:10:19;12.40;99.90
50586;DHT22;36542;51.700;8.846;2023-05-23T07:12:45;12.40;99.90
50586;DHT22;36542;51.700;8.846;2023-05-23T07:15:11;12.40;99.90
50586;DHT22;36542;51.700;8.846;2023-05-23T07:17:36;12.40;99.90
50586;DHT22;36542;51.700;8.846;2023-05-23T07:20:02;12.40;99.90
50586;DHT22;36542;51.700;8.846;2023-05-23T07:22:29;12.40;99.90
50586;DHT22;36542;51.700;8.846;2023-05-23T07:24:55;12.40;99.90
50586;DHT22;36542;51.700;8.846;2023-05-23T07:27:21;12.30;99.90
50586;DHT22;36542;51.700;8.846;2023-05-23T07:29:46;12.30;99.90
50586;DHT22;36542;51.700;8.846;2023-05-23T07:32:12;12.20;99.90
50586;DHT22;36542;51.700;8.846;2023-05-23T07:34:37;12.20;99.90
50586;DHT22;36542;51.700;8.846;2023-05-23T07:37:03;12.30;99.90
50586;DHT22;36542;51.700;8.846;2023-05-23T07:39:28;12.30;99.90
50586;DHT22;36542;51.700;8.846;2023-05-23T07:41:54;12.30;99.90
50586;DHT22;36542;51.700;8.846;2023-05-23T07:44:20;12.30;99.90
50586;DHT22;36542;51.700;8.846;2023-05-23T07:46:45;12.20;99.90
50586;DHT22;36542;51.700;8.846;2023-05-23T07:49:10;12.20;99.90
50586;DHT22;36542;51.700;8.846;2023-05-23T07:51:36;12.10;99.90
50586;DHT22;36542;51.700;8.846;2023-05-23T07:54:01;12.10;99.90
50586;DHT22;36542;51.700;8.846;2023-05-23T07:56:27;12.10;99.90
50586;DHT22;36542;51.700;8.846;2023-05-23T07:58:52;12.00;99.90
50586;DHT22;36542;51.700;8.846;2023-05-23T08:01:18;12.10;99.90
50586;DHT22;36542;51.700;8.846;2023-05-23T08:03:44;12.10;99.90
50586;DHT22;36542;51.700;8.846;2023-05-23T08:06:10;12.00;99.90
50586;DHT22;36542;51.700;8.846;2023-05-23T08:08:35;11.90;99.90
50586;DHT22;36542;51.700;8.846;2023-05-23T08:11:02;11.80;99.90
50586;DHT22;36542;51.700;8.846;2023-05-23T08:13:27;11.80;99.90
50586;DHT22;36542;51.700;8.846;2023-05-23T08:15:53;11.70;99.90
50586;DHT22;36542;51.700;8.846;2023-05-23T08:18:18;11.60;99.90
50586;DHT22;36542;51.700;8.846;2023-05-23T08:20:44;11.60;99.90
50586;DHT22;36542;51.700;8.846;2023-05-23T08:23:10;11.50;99.90
50586;DHT22;36542;51.700;8.846;2023-05-23T08:25:37;11.50;99.90
50586;DHT22;36542;51.700;8.846;2023-05-23T08:28:02;11.40;99.90
50586;DHT22;36542;51.700;8.846;2023-05-23T08:30:28;11.40;99.90
50586;DHT22;36542;51.700;8.846;2023-05-23T08:32:55;11.40;99.90
50586;DHT22;36542;51.700;8.846;2023-05-23T08:35:21;11.40;99.90
50586;DHT22;36542;51.700;8.846;2023-05-23T08:37:47;11.40;99.90
50586;DHT22;36542;51.700;8.846;2023-05-23T08:40:20;11.40;99.90
50586;DHT22;36542;51.700;8.846;2023-05-23T08:42:47;11.40;99.90
50586;DHT22;36542;51.700;8.846;2023-05-23T08:45:13;11.40;99.90
50586;DHT22;36542;51.700;8.846;2023-05-23T08:47:41;11.40;99.90
50586;DHT22;36542;51.700;8.846;2023-05-23T08:50:10;11.30;99.90
50586;DHT22;36542;51.700;8.846;2023-05-23T08:55:18;11.30;99.90
50586;DHT22;36542;51.700;8.846;2023-05-23T08:57:45;11.30;99.90
50586;DHT22;36542;51.700;8.846;2023-05-23T09:00:13;11.30;99.90
50586;DHT22;36542;51.700;8.846;2023-05-23T09:02:42;11.40;99.90
50586;DHT22;36542;51.700;8.846;2023-05-23T09:05:08;11.20;99.90
50586;DHT22;36542;51.700;8.846;2023-05-23T09:07:34;11.30;99.90
50586;DHT22;36542;51.700;8.846;2023-05-23T09:10:00;11.30;99.90
50586;DHT22;36542;51.700;8.846;2023-05-23T09:12:25;11.40;99.90
50586;DHT22;36542;51.700;8.846;2023-05-23T09:14:51;11.30;99.90
50586;DHT22;36542;51.700;8.846;2023-05-23T09:17:20;11.30;99.90
50586;DHT22;36542;51.700;8.846;2023-05-23T09:19:46;11.30;99.90
50586;DHT22;36542;51.700;8.846;2023-05-23T09:22:12;11.30;99.90
50586;DHT22;36542;51.700;8.846;2023-05-23T09:24:37;11.20;99.90
50586;DHT22;36542;51.700;8.846;2023-05-23T09:27:07;11.20;99.90
50586;DHT22;36542;51.700;8.846;2023-05-23T09:29:36;11.20;99.90
50586;DHT22;36542;51.700;8.846;2023-05-23T09:32:14;11.20;99.90
50586;DHT22;36542;51.700;8.846;2023-05-23T09:34:56;11.20;99.90
50586;DHT22;36542;51.700;8.846;2023-05-23T09:37:37;11.20;99.90
50586;DHT22;36542;51.700;8.846;2023-05-23T09:40:08;11.20;99.90
50586;DHT22;36542;51.700;8.846;2023-05-23T09:42:35;11.20;99.90
50586;DHT22;36542;51.700;8.846;2023-05-23T09:45:06;11.20;99.90
50586;DHT22;36542;51.700;8.846;2023-05-23T09:47:31;11.20;99.90
50586;DHT22;36542;51.700;8.846;2023-05-23T09:49:57;11.30;99.90
50586;DHT22;36542;51.700;8.846;2023-05-23T09:52:22;11.30;99.90
50586;DHT22;36542;51.700;8.846;2023-05-23T09:54:48;11.30;99.90
50586;DHT22;36542;51.700;8.846;2023-05-23T09:57:14;11.30;99.90
50586;DHT22;36542;51.700;8.846;2023-05-23T09:59:44;11.20;99.90
50586;DHT22;36542;51.700;8.846;2023-05-23T10:02:11;11.20;99.90
50586;DHT22;36542;51.700;8.846;2023-05-23T10:04:38;11.20;99.90
50586;DHT22;36542;51.700;8.846;2023-05-23T10:07:09;11.20;99.90
50586;DHT22;36542;51.700;8.846;2023-05-23T10:09:38;11.10;99.90
50586;DHT22;36542;51.700;8.846;2023-05-23T10:12:36;11.10;99.90
50586;DHT22;36542;51.700;8.846;2023-05-23T10:15:04;11.20;99.90
50586;DHT22;36542;51.700;8.846;2023-05-23T10:20:15;11.20;99.90
50586;DHT22;36542;51.700;8.846;2023-05-23T10:22:41;11.20;99.90
50586;DHT22;36542;51.700;8.846;2023-05-23T10:25:07;11.10;99.90
50586;DHT22;36542;51.700;8.846;2023-05-23T10:27:38;11.00;99.90
50586;DHT22;36542;51.700;8.846;2023-05-23T10:30:05;11.00;99.90
50586;DHT22;36542;51.700;8.846;2023-05-23T10:32:32;11.00;99.90
50586;DHT22;36542;51.700;8.846;2023-05-23T10:35:20;10.90;99.90
50586;DHT22;36542;51.700;8.846;2023-05-23T10:37:55;10.90;99.90
50586;DHT22;36542;51.700;8.846;2023-05-23T10:40:32;10.90;99.90
50586;DHT22;36542;51.700;8.846;2023-05-23T10:43:06;10.90;99.90
50586;DHT22;36542;51.700;8.846;2023-05-23T10:45:41;10.90;99.90
50586;DHT22;36542;51.700;8.846;2023-05-23T10:48:32;10.80;99.90
50586;DHT22;36542;51.700;8.846;2023-05-23T10:51:07;10.80;99.90
50586;DHT22;36542;51.700;8.846;2023-05-23T10:53:41;10.80;99.90
50586;DHT22;36542;51.700;8.846;2023-05-23T10:56:08;10.80;99.90
50586;DHT22;36542;51.700;8.846;2023-05-23T10:58:35;10.80;99.90
50586;DHT22;36542;51.700;8.846;2023-05-23T11:01:06;10.70;99.90
50586;DHT22;36542;51.700;8.846;2023-05-23T11:06:43;10.70;99.90
50586;DHT22;36542;51.700;8.846;2023-05-23T11:09:18;10.70;99.90
50586;DHT22;36542;51.700;8.846;2023-05-23T11:14:51;10.60;99.90
50586;DHT22;36542;51.700;8.846;2023-05-23T11:17:28;10.60;99.90
50586;DHT22;36542;51.700;8.846;2023-05-23T11:19:59;10.60;99.90
50586;DHT22;36542;51.700;8.846;2023-05-23T11:22:29;10.60;99.90
50586;DHT22;36542;51.700;8.846;2023-05-23T11:24:56;10.50;99.90
50586;DHT22;36542;51.700;8.846;2023-05-23T11:27:35;10.50;99.90
50586;DHT22;36542;51.700;8.846;2023-05-23T11:30:17;10.50;99.90
50586;DHT22;36542;51.700;8.846;2023-05-23T11:32:50;10.50;99.90
50586;DHT22;36542;51.700;8.846;2023-05-23T11:35:16;10.50;99.90
50586;DHT22;36542;51.700;8.846;2023-05-23T11:37:42;10.50;99.90
50586;DHT22;36542;51.700;8.846;2023-05-23T11:40:30;10.60;99.90
50586;DHT22;36542;51.700;8.846;2023-05-23T11:42:56;10.60;99.90
50586;DHT22;36542;51.700;8.846;2023-05-23T11:45:22;10.50;99.90
50586;DHT22;36542;51.700;8.846;2023-05-23T11:47:48;10.60;99.90
50586;DHT22;36542;51.700;8.846;2023-05-23T11:50:14;10.60;99.90
50586;DHT22;36542;51.700;8.846;2023-05-23T11:52:40;10.50;99.90
50586;DHT22;36542;51.700;8.846;2023-05-23T11:55:07;10.30;99.90
50586;DHT22;36542;51.700;8.846;2023-05-23T11:57:37;10.30;99.90
50586;DHT22;36542;51.700;8.846;2023-05-23T12:00:05;10.30;99.90
50586;DHT22;36542;51.700;8.846;2023-05-23T12:02:37;10.40;99.90
50586;DHT22;36542;51.700;8.846;2023-05-23T12:05:11;10.40;99.90
50586;DHT22;36542;51.700;8.846;2023-05-23T12:07:42;10.50;99.90
50586;DHT22;36542;51.700;8.846;2023-05-23T12:10:10;10.60;99.90
50586;DHT22;36542;51.700;8.846;2023-05-23T12:12:36;10.90;99.90
50586;DHT22;36542;51.700;8.846;2023-05-23T12:15:02;11.00;99.90
50586;DHT22;36542;51.700;8.846;2023-05-23T12:17:29;11.00;99.90
50586;DHT22;36542;51.700;8.846;2023-05-23T12:19:55;11.10;99.90
50586;DHT22;36542;51.700;8.846;2023-05-23T12:22:23;11.20;99.90
50586;DHT22;36542;51.700;8.846;2023-05-23T12:24:52;11.30;99.90
50586;DHT22;36542;51.700;8.846;2023-05-23T12:27:18;11.50;99.90
50586;DHT22;36542;51.700;8.846;2023-05-23T12:29:49;11.80;99.90
50586;DHT22;36542;51.700;8.846;2023-05-23T12:32:18;12.00;99.90
50586;DHT22;36542;51.700;8.846;2023-05-23T12:34:43;11.90;99.90
50586;DHT22;36542;51.700;8.846;2023-05-23T12:37:12;11.80;99.90
50586;DHT22;36542;51.700;8.846;2023-05-23T12:39:38;11.60;99.90
50586;DHT22;36542;51.700;8.846;2023-05-23T12:42:08;11.70;99.90
50586;DHT22;36542;51.700;8.846;2023-05-23T12:44:34;11.60;99.90
50586;DHT22;36542;51.700;8.846;2023-05-23T12:47:01;11.70;99.90
50586;DHT22;36542;51.700;8.846;2023-05-23T12:49:27;11.80;99.90
50586;DHT22;36542;51.700;8.846;2023-05-23T12:51:52;11.70;99.90
50586;DHT22;36542;51.700;8.846;2023-05-23T12:54:18;11.70;99.90
50586;DHT22;36542;51.700;8.846;2023-05-23T12:56:43;11.80;99.90
50586;DHT22;36542;51.700;8.846;2023-05-23T12:59:09;11.80;99.90
50586;DHT22;36542;51.700;8.846;2023-05-23T13:01:34;11.80;99.90
50586;DHT22;36542;51.700;8.846;2023-05-23T13:04:00;11.80;99.90
50586;DHT22;36542;51.700;8.846;2023-05-23T13:06:27;12.00;99.90
50586;DHT22;36542;51.700;8.846;2023-05-23T13:08:52;12.20;99.90
50586;DHT22;36542;51.700;8.846;2023-05-23T13:11:20;12.50;99.90
50586;DHT22;36542;51.700;8.846;2023-05-23T13:13:47;12.60;99.90
50586;DHT22;36542;51.700;8.846;2023-05-23T13:16:12;12.90;99.90
50586;DHT22;36542;51.700;8.846;2023-05-23T13:18:38;13.30;99.90
50586;DHT22;36542;51.700;8.846;2023-05-23T13:21:03;13.40;99.90
50586;DHT22;36542;51.700;8.846;2023-05-23T13:23:29;13.50;99.90
50586;DHT22;36542;51.700;8.846;2023-05-23T13:25:55;13.60;99.90
50586;DHT22;36542;51.700;8.846;2023-05-23T13:28:22;13.70;99.90
50586;DHT22;36542;51.700;8.846;2023-05-23T13:30:48;13.30;99.90
50586;DHT22;36542;51.700;8.846;2023-05-23T13:33:14;13.10;99.90
50586;DHT22;36542;51.700;8.846;2023-05-23T13:35:40;13.10;99.90
50586;DHT22;36542;51.700;8.846;2023-05-23T13:38:05;12.90;99.90
50586;DHT22;36542;51.700;8.846;2023-05-23T13:40:31;12.80;99.90
50586;DHT22;36542;51.700;8.846;2023-05-23T13:42:57;12.70;99.90
50586;DHT22;36542;51.700;8.846;2023-05-23T13:45:22;12.70;99.90
50586;DHT22;36542;51.700;8.846;2023-05-23T13:47:48;13.20;99.90
50586;DHT22;36542;51.700;8.846;2023-05-23T13:50:13;13.40;99.90
50586;DHT22;36542;51.700;8.846;2023-05-23T13:52:39;13.40;99.90
50586;DHT22;36542;51.700;8.846;2023-05-23T13:55:05;13.30;99.90
50586;DHT22;36542;51.700;8.846;2023-05-23T13:57:30;13.20;99.90
50586;DHT22;36542;51.700;8.846;2023-05-23T13:59:56;13.20;99.90
50586;DHT22;36542;51.700;8.846;2023-05-23T14:02:22;13.20;99.90
50586;DHT22;36542;51.700;8.846;2023-05-23T14:04:48;13.60;99.90
50586;DHT22;36542;51.700;8.846;2023-05-23T14:07:14;13.60;99.90
50586;DHT22;36542;51.700;8.846;2023-05-23T14:09:40;13.60;99.90
50586;DHT22;36542;51.700;8.846;2023-05-23T14:12:05;13.30;99.90
50586;DHT22;36542;51.700;8.846;2023-05-23T14:14:31;13.10;99.90
50586;DHT22;36542;51.700;8.846;2023-05-23T14:16:56;13.00;99.90
50586;DHT22;36542;51.700;8.846;2023-05-23T14:19:22;12.90;99.90
50586;DHT22;36542;51.700;8.846;2023-05-23T14:21:48;13.00;99.90
50586;DHT22;36542;51.700;8.846;2023-05-23T14:24:13;13.10;99.90
50586;DHT22;36542;51.700;8.846;2023-05-23T14:26:39;13.30;99.90
50586;DHT22;36542;51.700;8.846;2023-05-23T14:29:04;13.60;99.90
50586;DHT22;36542;51.700;8.846;2023-05-23T14:31:31;13.40;99.90
50586;DHT22;36542;51.700;8.846;2023-05-23T14:33:56;13.10;99.90
50586;DHT22;36542;51.700;8.846;2023-05-23T14:36:23;13.10;99.90
50586;DHT22;36542;51.700;8.846;2023-05-23T14:38:49;13.20;99.90
50586;DHT22;36542;51.700;8.846;2023-05-23T14:41:15;13.20;99.90
50586;DHT22;36542;51.700;8.846;2023-05-23T14:43:40;13.50;99.90
50586;DHT22;36542;51.700;8.846;2023-05-23T14:46:06;13.80;99.90
50586;DHT22;36542;51.700;8.846;2023-05-23T14:48:31;13.60;99.90
50586;DHT22;36542;51.700;8.846;2023-05-23T14:50:57;13.30;99.90
50586;DHT22;36542;51.700;8.846;2023-05-23T14:53:26;13.10;99.90
50586;DHT22;36542;51.700;8.846;2023-05-23T14:55:52;12.90;99.90
50586;DHT22;36542;51.700;8.846;2023-05-23T14:58:17;13.00;99.90
50586;DHT22;36542;51.700;8.846;2023-05-23T15:00:43;13.50;99.90
50586;DHT22;36542;51.700;8.846;2023-05-23T15:03:11;13.60;99.90
50586;DHT22;36542;51.700;8.846;2023-05-23T15:05:37;14.10;99.90
50586;DHT22;36542;51.700;8.846;2023-05-23T15:08:02;14.30;99.90
50586;DHT22;36542;51.700;8.846;2023-05-23T15:10:28;14.00;99.90
50586;DHT22;36542;51.700;8.846;2023-05-23T15:12:53;13.60;99.90
50586;DHT22;36542;51.700;8.846;2023-05-23T15:15:19;13.50;99.90
50586;DHT22;36542;51.700;8.846;2023-05-23T15:17:48;13.30;99.90
50586;DHT22;36542;51.700;8.846;2023-05-23T15:20:13;13.10;99.90
50586;DHT22;36542;51.700;8.846;2023-05-23T15:22:39;12.90;99.90
50586;DHT22;36542;51.700;8.846;2023-05-23T15:25:06;12.70;99.90
50586;DHT22;36542;51.700;8.846;2023-05-23T15:27:31;12.60;99.90
50586;DHT22;36542;51.700;8.846;2023-05-23T15:29:57;12.50;99.90
50586;DHT22;36542;51.700;8.846;2023-05-23T15:32:22;12.60;99.90
50586;DHT22;36542;51.700;8.846;2023-05-23T15:34:48;12.60;99.90
50586;DHT22;36542;51.700;8.846;2023-05-23T15:37:13;12.80;99.90
50586;DHT22;36542;51.700;8.846;2023-05-23T15:39:39;13.00;99.90
50586;DHT22;36542;51.700;8.846;2023-05-23T15:42:04;13.20;99.90